NH37 weather

Southern Nh Medical Center Heliport
Nashua, New Hampshire, United States

Public forecast

Using degrees Fahrenheit for public forecast. Weather courtesy of forecast.io.

Closest aviation weather report (METAR) to Southern Nh Medical Center Heliport

Closest report is Boire Field, 2.8 nm (5.2 km) NW. Retrieved 2020/08/03 11:56 UTC (26 minutes ago):

KASH 031156Z 23008KT 200V260 10SM CLR 27/23 A2990 RMK AO2 SLP127 T02670228 10267 20239 53012

Closest aviation forecast (TAF) to Southern Nh Medical Center Heliport

Closest forecast is Manchester-Boston Regional Airport, 10.7 nm (19.8 km) N. Retrieved 2020/08/03 12:22 UTC (5 seconds ago):

TAF KMHT 031120Z 0312/0412 22008KT P6SM BKN250 FM031400 27010G20KT P6SM SCT050 BKN250 FM040000 VRB03KT P6SM BKN200